sensor_id;sensor_type;location;lat;lon;timestamp;P1;durP1;ratioP1;P2;durP2;ratioP2
20445;SDS011;10382;49.140;9.234;2023-04-16T00:01:11;14.97;;;9.30;;
20445;SDS011;10382;49.140;9.234;2023-04-16T00:03:38;15.23;;;9.67;;
20445;SDS011;10382;49.140;9.234;2023-04-16T00:06:05;12.43;;;8.90;;
20445;SDS011;10382;49.140;9.234;2023-04-16T00:08:32;18.47;;;10.30;;
20445;SDS011;10382;49.140;9.234;2023-04-16T00:10:59;15.23;;;10.30;;
20445;SDS011;10382;49.140;9.234;2023-04-16T00:13:27;16.97;;;11.40;;
20445;SDS011;10382;49.140;9.234;2023-04-16T00:15:54;16.23;;;10.27;;
20445;SDS011;10382;49.140;9.234;2023-04-16T00:18:21;14.30;;;10.13;;
20445;SDS011;10382;49.140;9.234;2023-04-16T00:20:48;17.17;;;10.70;;
20445;SDS011;10382;49.140;9.234;2023-04-16T00:23:15;13.20;;;9.33;;
20445;SDS011;10382;49.140;9.234;2023-04-16T00:25:42;20.93;;;12.30;;
20445;SDS011;10382;49.140;9.234;2023-04-16T00:28:09;13.73;;;9.00;;
20445;SDS011;10382;49.140;9.234;2023-04-16T00:30:37;13.73;;;9.50;;
20445;SDS011;10382;49.140;9.234;2023-04-16T00:33:04;14.37;;;10.30;;
20445;SDS011;10382;49.140;9.234;2023-04-16T00:35:31;15.73;;;9.70;;
20445;SDS011;10382;49.140;9.234;2023-04-16T00:37:58;13.90;;;9.60;;
20445;SDS011;10382;49.140;9.234;2023-04-16T00:40:26;15.07;;;10.23;;
20445;SDS011;10382;49.140;9.234;2023-04-16T00:42:53;12.63;;;8.80;;
20445;SDS011;10382;49.140;9.234;2023-04-16T00:45:20;13.57;;;8.53;;
20445;SDS011;10382;49.140;9.234;2023-04-16T00:47:48;12.67;;;8.10;;
20445;SDS011;10382;49.140;9.234;2023-04-16T00:50:15;14.10;;;10.10;;
20445;SDS011;10382;49.140;9.234;2023-04-16T00:52:43;14.23;;;9.37;;
20445;SDS011;10382;49.140;9.234;2023-04-16T00:55:12;12.77;;;8.20;;
20445;SDS011;10382;49.140;9.234;2023-04-16T00:57:39;10.73;;;7.57;;
20445;SDS011;10382;49.140;9.234;2023-04-16T01:00:06;9.60;;;6.90;;
20445;SDS011;10382;49.140;9.234;2023-04-16T01:02:34;12.53;;;7.80;;
20445;SDS011;10382;49.140;9.234;2023-04-16T01:05:02;11.20;;;7.77;;
20445;SDS011;10382;49.140;9.234;2023-04-16T01:07:30;10.00;;;7.93;;
20445;SDS011;10382;49.140;9.234;2023-04-16T01:09:57;11.70;;;8.20;;
20445;SDS011;10382;49.140;9.234;2023-04-16T01:12:24;9.40;;;6.17;;
20445;SDS011;10382;49.140;9.234;2023-04-16T01:14:51;13.33;;;8.80;;
20445;SDS011;10382;49.140;9.234;2023-04-16T01:17:18;8.70;;;6.60;;
20445;SDS011;10382;49.140;9.234;2023-04-16T01:19:45;10.80;;;7.30;;
20445;SDS011;10382;49.140;9.234;2023-04-16T01:22:13;24.27;;;13.70;;
20445;SDS011;10382;49.140;9.234;2023-04-16T01:24:40;12.43;;;6.50;;
20445;SDS011;10382;49.140;9.234;2023-04-16T01:27:07;10.53;;;7.37;;
20445;SDS011;10382;49.140;9.234;2023-04-16T01:29:33;8.40;;;6.63;;
20445;SDS011;10382;49.140;9.234;2023-04-16T01:32:00;10.60;;;7.27;;
20445;SDS011;10382;49.140;9.234;2023-04-16T01:34:27;11.27;;;6.87;;
20445;SDS011;10382;49.140;9.234;2023-04-16T01:36:54;11.20;;;7.20;;
20445;SDS011;10382;49.140;9.234;2023-04-16T01:39:22;9.67;;;6.33;;
20445;SDS011;10382;49.140;9.234;2023-04-16T01:41:49;8.97;;;6.27;;
20445;SDS011;10382;49.140;9.234;2023-04-16T01:44:16;10.50;;;6.77;;
20445;SDS011;10382;49.140;9.234;2023-04-16T01:46:43;11.13;;;7.97;;
20445;SDS011;10382;49.140;9.234;2023-04-16T01:51:43;15.43;;;6.90;;
20445;SDS011;10382;49.140;9.234;2023-04-16T01:54:10;16.00;;;6.70;;
20445;SDS011;10382;49.140;9.234;2023-04-16T01:56:39;14.73;;;6.23;;
20445;SDS011;10382;49.140;9.234;2023-04-16T01:59:06;15.20;;;6.70;;
20445;SDS011;10382;49.140;9.234;2023-04-16T02:01:33;20.33;;;7.60;;
20445;SDS011;10382;49.140;9.234;2023-04-16T02:03:59;18.23;;;7.37;;
20445;SDS011;10382;49.140;9.234;2023-04-16T02:06:26;20.60;;;8.00;;
20445;SDS011;10382;49.140;9.234;2023-04-16T02:08:53;17.17;;;6.93;;
20445;SDS011;10382;49.140;9.234;2023-04-16T02:11:20;23.87;;;9.07;;
20445;SDS011;10382;49.140;9.234;2023-04-16T02:13:48;29.30;;;10.67;;
20445;SDS011;10382;49.140;9.234;2023-04-16T02:16:15;20.27;;;8.30;;
20445;SDS011;10382;49.140;9.234;2023-04-16T02:18:42;26.10;;;8.90;;
20445;SDS011;10382;49.140;9.234;2023-04-16T02:21:09;12.77;;;5.90;;
20445;SDS011;10382;49.140;9.234;2023-04-16T02:23:35;20.63;;;7.40;;
20445;SDS011;10382;49.140;9.234;2023-04-16T02:26:05;18.57;;;7.50;;
20445;SDS011;10382;49.140;9.234;2023-04-16T02:28:31;22.30;;;8.83;;
20445;SDS011;10382;49.140;9.234;2023-04-16T02:31:00;35.83;;;11.40;;
20445;SDS011;10382;49.140;9.234;2023-04-16T02:33:27;33.30;;;10.73;;
20445;SDS011;10382;49.140;9.234;2023-04-16T02:35:56;29.00;;;9.30;;
20445;SDS011;10382;49.140;9.234;2023-04-16T02:38:23;24.80;;;7.87;;
20445;SDS011;10382;49.140;9.234;2023-04-16T02:40:49;41.67;;;13.00;;
20445;SDS011;10382;49.140;9.234;2023-04-16T02:43:16;18.80;;;7.40;;
20445;SDS011;10382;49.140;9.234;2023-04-16T02:45:43;24.20;;;9.03;;
20445;SDS011;10382;49.140;9.234;2023-04-16T02:48:11;15.87;;;6.67;;
20445;SDS011;10382;49.140;9.234;2023-04-16T02:50:38;21.80;;;9.00;;
20445;SDS011;10382;49.140;9.234;2023-04-16T02:53:05;25.33;;;8.70;;
20445;SDS011;10382;49.140;9.234;2023-04-16T02:55:32;24.90;;;9.73;;
20445;SDS011;10382;49.140;9.234;2023-04-16T02:57:59;22.47;;;8.60;;
20445;SDS011;10382;49.140;9.234;2023-04-16T03:00:26;14.53;;;7.43;;
20445;SDS011;10382;49.140;9.234;2023-04-16T03:02:52;32.30;;;10.80;;
20445;SDS011;10382;49.140;9.234;2023-04-16T03:05:21;13.83;;;7.70;;
20445;SDS011;10382;49.140;9.234;2023-04-16T03:07:47;33.37;;;11.57;;
20445;SDS011;10382;49.140;9.234;2023-04-16T03:10:20;29.63;;;10.30;;
20445;SDS011;10382;49.140;9.234;2023-04-16T03:12:47;31.37;;;10.73;;
20445;SDS011;10382;49.140;9.234;2023-04-16T03:15:14;26.90;;;11.20;;
20445;SDS011;10382;49.140;9.234;2023-04-16T03:17:41;21.67;;;10.43;;
20445;SDS011;10382;49.140;9.234;2023-04-16T03:20:08;24.70;;;10.90;;
20445;SDS011;10382;49.140;9.234;2023-04-16T03:22:36;18.10;;;9.27;;
20445;SDS011;10382;49.140;9.234;2023-04-16T03:25:04;28.90;;;11.90;;
20445;SDS011;10382;49.140;9.234;2023-04-16T03:27:31;24.73;;;10.93;;
20445;SDS011;10382;49.140;9.234;2023-04-16T03:29:58;26.80;;;11.33;;
20445;SDS011;10382;49.140;9.234;2023-04-16T03:32:25;25.03;;;11.77;;
20445;SDS011;10382;49.140;9.234;2023-04-16T03:34:51;33.07;;;12.63;;
20445;SDS011;10382;49.140;9.234;2023-04-16T03:37:18;20.97;;;9.57;;
20445;SDS011;10382;49.140;9.234;2023-04-16T03:39:47;46.37;;;15.27;;
20445;SDS011;10382;49.140;9.234;2023-04-16T03:42:14;25.30;;;11.40;;
20445;SDS011;10382;49.140;9.234;2023-04-16T03:44:41;24.63;;;11.40;;
20445;SDS011;10382;49.140;9.234;2023-04-16T03:47:08;24.70;;;11.47;;
20445;SDS011;10382;49.140;9.234;2023-04-16T03:49:35;26.93;;;12.63;;
20445;SDS011;10382;49.140;9.234;2023-04-16T03:52:02;21.70;;;10.97;;
20445;SDS011;10382;49.140;9.234;2023-04-16T03:54:29;30.50;;;13.17;;
20445;SDS011;10382;49.140;9.234;2023-04-16T03:56:57;22.87;;;11.83;;
20445;SDS011;10382;49.140;9.234;2023-04-16T03:59:24;26.30;;;11.80;;
20445;SDS011;10382;49.140;9.234;2023-04-16T04:01:50;36.43;;;13.33;;
20445;SDS011;10382;49.140;9.234;2023-04-16T04:04:17;32.27;;;13.60;;
20445;SDS011;10382;49.140;9.234;2023-04-16T04:06:44;24.90;;;11.60;;
20445;SDS011;10382;49.140;9.234;2023-04-16T04:09:11;28.20;;;12.40;;
20445;SDS011;10382;49.140;9.234;2023-04-16T04:11:39;26.43;;;11.80;;
20445;SDS011;10382;49.140;9.234;2023-04-16T04:14:07;25.07;;;12.03;;
20445;SDS011;10382;49.140;9.234;2023-04-16T04:16:34;27.73;;;12.90;;
20445;SDS011;10382;49.140;9.234;2023-04-16T04:19:01;32.67;;;13.83;;
20445;SDS011;10382;49.140;9.234;2023-04-16T04:21:28;27.63;;;12.70;;
20445;SDS011;10382;49.140;9.234;2023-04-16T04:23:55;32.93;;;13.83;;
20445;SDS011;10382;49.140;9.234;2023-04-16T04:26:22;30.63;;;13.17;;
20445;SDS011;10382;49.140;9.234;2023-04-16T04:28:49;37.00;;;15.60;;
20445;SDS011;10382;49.140;9.234;2023-04-16T04:31:17;23.17;;;11.73;;
20445;SDS011;10382;49.140;9.234;2023-04-16T04:33:44;32.60;;;13.57;;
20445;SDS011;10382;49.140;9.234;2023-04-16T04:36:11;27.57;;;12.63;;
20445;SDS011;10382;49.140;9.234;2023-04-16T04:38:38;24.10;;;12.13;;
20445;SDS011;10382;49.140;9.234;2023-04-16T04:41:04;35.80;;;14.10;;
20445;SDS011;10382;49.140;9.234;2023-04-16T04:43:31;26.47;;;11.60;;
20445;SDS011;10382;49.140;9.234;2023-04-16T04:45:58;32.83;;;13.00;;
20445;SDS011;10382;49.140;9.234;2023-04-16T04:48:26;43.60;;;17.70;;
20445;SDS011;10382;49.140;9.234;2023-04-16T04:50:53;32.17;;;12.77;;
20445;SDS011;10382;49.140;9.234;2023-04-16T04:53:20;22.77;;;11.90;;
20445;SDS011;10382;49.140;9.234;2023-04-16T04:55:47;40.80;;;14.43;;
20445;SDS011;10382;49.140;9.234;2023-04-16T04:58:14;24.03;;;11.43;;
20445;SDS011;10382;49.140;9.234;2023-04-16T05:00:40;24.30;;;11.90;;
20445;SDS011;10382;49.140;9.234;2023-04-16T05:03:09;35.60;;;13.03;;
20445;SDS011;10382;49.140;9.234;2023-04-16T05:05:38;20.37;;;9.53;;
20445;SDS011;10382;49.140;9.234;2023-04-16T05:08:05;24.43;;;10.73;;
20445;SDS011;10382;49.140;9.234;2023-04-16T05:10:32;23.50;;;10.93;;
20445;SDS011;10382;49.140;9.234;2023-04-16T05:12:59;31.97;;;12.70;;
20445;SDS011;10382;49.140;9.234;2023-04-16T05:15:26;23.03;;;10.20;;
20445;SDS011;10382;49.140;9.234;2023-04-16T05:17:53;33.27;;;13.13;;
20445;SDS011;10382;49.140;9.234;2023-04-16T05:20:20;25.83;;;10.70;;
20445;SDS011;10382;49.140;9.234;2023-04-16T05:22:49;35.13;;;13.90;;
20445;SDS011;10382;49.140;9.234;2023-04-16T05:25:16;38.93;;;14.30;;
20445;SDS011;10382;49.140;9.234;2023-04-16T05:27:43;33.53;;;13.03;;
20445;SDS011;10382;49.140;9.234;2023-04-16T05:30:10;33.77;;;13.57;;
20445;SDS011;10382;49.140;9.234;2023-04-16T05:32:37;38.80;;;14.83;;
20445;SDS011;10382;49.140;9.234;2023-04-16T05:35:05;39.03;;;12.90;;
20445;SDS011;10382;49.140;9.234;2023-04-16T05:37:33;33.57;;;14.03;;
20445;SDS011;10382;49.140;9.234;2023-04-16T05:40:01;40.07;;;14.97;;
20445;SDS011;10382;49.140;9.234;2023-04-16T05:42:28;29.70;;;13.10;;
20445;SDS011;10382;49.140;9.234;2023-04-16T05:44:56;34.60;;;14.20;;
20445;SDS011;10382;49.140;9.234;2023-04-16T05:47:22;33.83;;;13.97;;
20445;SDS011;10382;49.140;9.234;2023-04-16T05:49:49;44.37;;;16.80;;
20445;SDS011;10382;49.140;9.234;2023-04-16T05:52:16;31.50;;;13.80;;
20445;SDS011;10382;49.140;9.234;2023-04-16T05:54:43;36.63;;;15.73;;
20445;SDS011;10382;49.140;9.234;2023-04-16T05:57:11;35.93;;;14.93;;
20445;SDS011;10382;49.140;9.234;2023-04-16T05:59:38;34.80;;;14.20;;
20445;SDS011;10382;49.140;9.234;2023-04-16T06:02:05;41.53;;;15.57;;
20445;SDS011;10382;49.140;9.234;2023-04-16T06:04:32;35.70;;;15.10;;
20445;SDS011;10382;49.140;9.234;2023-04-16T06:07:00;37.33;;;14.90;;
20445;SDS011;10382;49.140;9.234;2023-04-16T06:09:28;27.33;;;13.33;;
20445;SDS011;10382;49.140;9.234;2023-04-16T06:11:55;54.97;;;20.53;;
20445;SDS011;10382;49.140;9.234;2023-04-16T06:14:24;41.40;;;15.20;;
20445;SDS011;10382;49.140;9.234;2023-04-16T06:16:50;40.40;;;17.50;;
20445;SDS011;10382;49.140;9.234;2023-04-16T06:19:17;40.00;;;16.63;;
20445;SDS011;10382;49.140;9.234;2023-04-16T06:21:44;40.70;;;16.30;;
20445;SDS011;10382;49.140;9.234;2023-04-16T06:24:11;38.77;;;16.33;;
20445;SDS011;10382;49.140;9.234;2023-04-16T06:26:38;43.57;;;17.73;;
20445;SDS011;10382;49.140;9.234;2023-04-16T06:29:05;49.37;;;18.17;;
20445;SDS011;10382;49.140;9.234;2023-04-16T06:31:33;37.07;;;15.70;;
20445;SDS011;10382;49.140;9.234;2023-04-16T06:34:00;35.50;;;15.83;;
20445;SDS011;10382;49.140;9.234;2023-04-16T06:36:26;42.87;;;17.63;;
20445;SDS011;10382;49.140;9.234;2023-04-16T06:38:53;49.87;;;18.73;;
20445;SDS011;10382;49.140;9.234;2023-04-16T06:41:20;41.57;;;18.07;;
20445;SDS011;10382;49.140;9.234;2023-04-16T06:43:49;46.23;;;18.77;;
20445;SDS011;10382;49.140;9.234;2023-04-16T06:46:16;41.10;;;17.60;;
20445;SDS011;10382;49.140;9.234;2023-04-16T06:48:44;42.17;;;17.73;;
20445;SDS011;10382;49.140;9.234;2023-04-16T06:51:11;47.20;;;18.27;;
20445;SDS011;10382;49.140;9.234;2023-04-16T06:53:38;48.57;;;18.00;;
20445;SDS011;10382;49.140;9.234;2023-04-16T06:56:06;34.13;;;14.93;;
20445;SDS011;10382;49.140;9.234;2023-04-16T06:58:33;52.93;;;19.60;;
20445;SDS011;10382;49.140;9.234;2023-04-16T07:01:00;44.03;;;18.57;;
20445;SDS011;10382;49.140;9.234;2023-04-16T07:03:27;42.50;;;17.77;;
20445;SDS011;10382;49.140;9.234;2023-04-16T07:05:55;54.07;;;19.63;;
20445;SDS011;10382;49.140;9.234;2023-04-16T07:08:22;38.27;;;16.77;;
20445;SDS011;10382;49.140;9.234;2023-04-16T07:10:49;45.67;;;18.50;;
20445;SDS011;10382;49.140;9.234;2023-04-16T07:13:17;39.13;;;16.90;;
20445;SDS011;10382;49.140;9.234;2023-04-16T07:15:44;34.67;;;15.47;;
20445;SDS011;10382;49.140;9.234;2023-04-16T07:18:11;34.23;;;14.90;;
20445;SDS011;10382;49.140;9.234;2023-04-16T07:20:38;47.33;;;17.80;;
20445;SDS011;10382;49.140;9.234;2023-04-16T07:23:06;41.37;;;17.67;;
20445;SDS011;10382;49.140;9.234;2023-04-16T07:25:33;36.17;;;16.53;;
20445;SDS011;10382;49.140;9.234;2023-04-16T07:28:00;32.37;;;15.60;;
20445;SDS011;10382;49.140;9.234;2023-04-16T07:30:28;37.07;;;16.37;;
20445;SDS011;10382;49.140;9.234;2023-04-16T07:32:58;39.80;;;16.03;;
20445;SDS011;10382;49.140;9.234;2023-04-16T07:35:25;34.63;;;16.77;;
20445;SDS011;10382;49.140;9.234;2023-04-16T07:37:52;40.90;;;18.50;;
20445;SDS011;10382;49.140;9.234;2023-04-16T07:40:20;36.17;;;16.17;;
20445;SDS011;10382;49.140;9.234;2023-04-16T07:42:47;38.00;;;16.10;;
20445;SDS011;10382;49.140;9.234;2023-04-16T07:45:14;47.83;;;19.70;;
20445;SDS011;10382;49.140;9.234;2023-04-16T07:47:41;51.57;;;19.33;;
20445;SDS011;10382;49.140;9.234;2023-04-16T07:50:08;37.40;;;16.00;;
20445;SDS011;10382;49.140;9.234;2023-04-16T07:52:35;39.83;;;17.80;;
20445;SDS011;10382;49.140;9.234;2023-04-16T07:55:05;38.33;;;15.83;;
20445;SDS011;10382;49.140;9.234;2023-04-16T07:57:34;42.40;;;16.43;;
20445;SDS011;10382;49.140;9.234;2023-04-16T08:00:00;41.90;;;16.00;;
20445;SDS011;10382;49.140;9.234;2023-04-16T08:02:29;45.13;;;18.07;;
20445;SDS011;10382;49.140;9.234;2023-04-16T08:04:56;43.00;;;17.63;;
20445;SDS011;10382;49.140;9.234;2023-04-16T08:07:22;50.57;;;17.73;;
20445;SDS011;10382;49.140;9.234;2023-04-16T08:09:50;47.60;;;17.80;;
20445;SDS011;10382;49.140;9.234;2023-04-16T08:12:17;34.73;;;15.43;;
20445;SDS011;10382;49.140;9.234;2023-04-16T08:14:46;40.50;;;16.30;;
20445;SDS011;10382;49.140;9.234;2023-04-16T08:17:13;40.13;;;16.37;;
20445;SDS011;10382;49.140;9.234;2023-04-16T08:19:41;45.57;;;17.17;;
20445;SDS011;10382;49.140;9.234;2023-04-16T08:22:08;34.87;;;15.37;;
20445;SDS011;10382;49.140;9.234;2023-04-16T08:24:35;29.80;;;13.97;;
20445;SDS011;10382;49.140;9.234;2023-04-16T08:27:02;31.13;;;12.63;;
20445;SDS011;10382;49.140;9.234;2023-04-16T08:29:29;37.73;;;15.10;;
20445;SDS011;10382;49.140;9.234;2023-04-16T08:31:57;52.30;;;16.47;;
20445;SDS011;10382;49.140;9.234;2023-04-16T08:34:24;32.90;;;12.93;;
20445;SDS011;10382;49.140;9.234;2023-04-16T08:36:51;30.20;;;12.80;;
20445;SDS011;10382;49.140;9.234;2023-04-16T08:39:18;43.83;;;15.13;;
20445;SDS011;10382;49.140;9.234;2023-04-16T08:41:45;53.57;;;18.77;;
20445;SDS011;10382;49.140;9.234;2023-04-16T08:44:13;30.07;;;13.40;;
20445;SDS011;10382;49.140;9.234;2023-04-16T08:46:46;47.20;;;16.60;;
20445;SDS011;10382;49.140;9.234;2023-04-16T08:49:16;43.70;;;16.47;;
20445;SDS011;10382;49.140;9.234;2023-04-16T08:51:44;55.77;;;19.60;;
20445;SDS011;10382;49.140;9.234;2023-04-16T08:54:18;54.57;;;18.57;;
20445;SDS011;10382;49.140;9.234;2023-04-16T08:56:53;51.57;;;17.13;;
20445;SDS011;10382;49.140;9.234;2023-04-16T08:59:23;46.03;;;16.70;;
20445;SDS011;10382;49.140;9.234;2023-04-16T09:01:50;38.23;;;15.83;;
20445;SDS011;10382;49.140;9.234;2023-04-16T09:04:19;32.17;;;13.57;;
20445;SDS011;10382;49.140;9.234;2023-04-16T09:06:47;47.43;;;16.60;;
20445;SDS011;10382;49.140;9.234;2023-04-16T09:09:15;34.37;;;15.20;;
20445;SDS011;10382;49.140;9.234;2023-04-16T09:11:45;39.67;;;14.83;;
20445;SDS011;10382;49.140;9.234;2023-04-16T09:14:15;38.07;;;14.07;;
20445;SDS011;10382;49.140;9.234;2023-04-16T09:16:42;34.23;;;14.03;;
20445;SDS011;10382;49.140;9.234;2023-04-16T09:19:11;39.03;;;13.63;;
20445;SDS011;10382;49.140;9.234;2023-04-16T09:21:39;48.60;;;16.43;;
20445;SDS011;10382;49.140;9.234;2023-04-16T09:24:07;37.30;;;15.67;;
20445;SDS011;10382;49.140;9.234;2023-04-16T09:26:34;38.67;;;14.40;;
20445;SDS011;10382;49.140;9.234;2023-04-16T09:29:01;38.47;;;14.87;;
20445;SDS011;10382;49.140;9.234;2023-04-16T09:31:28;38.47;;;14.73;;
20445;SDS011;10382;49.140;9.234;2023-04-16T09:34:01;35.43;;;13.93;;
20445;SDS011;10382;49.140;9.234;2023-04-16T09:36:29;35.90;;;13.73;;
20445;SDS011;10382;49.140;9.234;2023-04-16T09:38:58;38.97;;;15.73;;
20445;SDS011;10382;49.140;9.234;2023-04-16T09:41:26;41.33;;;15.40;;
20445;SDS011;10382;49.140;9.234;2023-04-16T09:43:54;36.77;;;16.03;;
20445;SDS011;10382;49.140;9.234;2023-04-16T09:46:22;42.70;;;16.50;;
20445;SDS011;10382;49.140;9.234;2023-04-16T09:48:49;37.23;;;15.10;;
20445;SDS011;10382;49.140;9.234;2023-04-16T09:51:16;41.80;;;15.70;;
20445;SDS011;10382;49.140;9.234;2023-04-16T09:53:43;53.10;;;18.50;;
20445;SDS011;10382;49.140;9.234;2023-04-16T09:56:11;40.43;;;14.90;;
20445;SDS011;10382;49.140;9.234;2023-04-16T09:58:38;39.50;;;16.30;;
20445;SDS011;10382;49.140;9.234;2023-04-16T10:01:06;45.70;;;17.20;;
20445;SDS011;10382;49.140;9.234;2023-04-16T10:03:35;38.50;;;15.90;;
20445;SDS011;10382;49.140;9.234;2023-04-16T10:06:06;32.13;;;13.20;;
20445;SDS011;10382;49.140;9.234;2023-04-16T10:08:34;39.97;;;16.07;;
20445;SDS011;10382;49.140;9.234;2023-04-16T10:11:01;40.73;;;15.20;;
20445;SDS011;10382;49.140;9.234;2023-04-16T10:13:30;48.57;;;17.53;;
20445;SDS011;10382;49.140;9.234;2023-04-16T10:15:57;43.67;;;17.53;;
20445;SDS011;10382;49.140;9.234;2023-04-16T10:18:25;46.30;;;15.83;;
20445;SDS011;10382;49.140;9.234;2023-04-16T10:20:53;46.40;;;17.20;;
20445;SDS011;10382;49.140;9.234;2023-04-16T10:23:20;32.57;;;14.13;;
20445;SDS011;10382;49.140;9.234;2023-04-16T10:25:48;49.50;;;15.37;;
20445;SDS011;10382;49.140;9.234;2023-04-16T10:28:15;44.77;;;16.80;;
20445;SDS011;10382;49.140;9.234;2023-04-16T10:30:44;36.17;;;15.17;;
20445;SDS011;10382;49.140;9.234;2023-04-16T10:33:18;45.97;;;17.07;;
20445;SDS011;10382;49.140;9.234;2023-04-16T10:35:46;48.40;;;17.70;;
20445;SDS011;10382;49.140;9.234;2023-04-16T10:38:20;35.20;;;14.17;;
20445;SDS011;10382;49.140;9.234;2023-04-16T10:40:48;42.17;;;16.33;;
20445;SDS011;10382;49.140;9.234;2023-04-16T10:43:16;46.43;;;18.37;;
20445;SDS011;10382;49.140;9.234;2023-04-16T10:45:46;36.07;;;15.53;;
20445;SDS011;10382;49.140;9.234;2023-04-16T10:48:13;37.90;;;15.40;;
20445;SDS011;10382;49.140;9.234;2023-04-16T10:50:46;44.93;;;17.60;;
20445;SDS011;10382;49.140;9.234;2023-04-16T10:53:21;31.07;;;14.00;;
20445;SDS011;10382;49.140;9.234;2023-04-16T10:55:56;37.47;;;14.93;;
20445;SDS011;10382;49.140;9.234;2023-04-16T10:58:26;35.77;;;14.77;;
20445;SDS011;10382;49.140;9.234;2023-04-16T11:00:55;37.60;;;13.60;;
20445;SDS011;10382;49.140;9.234;2023-04-16T11:03:25;37.70;;;14.50;;
20445;SDS011;10382;49.140;9.234;2023-04-16T11:06:08;48.67;;;17.97;;
20445;SDS011;10382;49.140;9.234;2023-04-16T11:08:36;46.97;;;17.53;;
20445;SDS011;10382;49.140;9.234;2023-04-16T11:11:04;48.53;;;17.07;;
20445;SDS011;10382;49.140;9.234;2023-04-16T11:13:31;36.60;;;17.10;;
20445;SDS011;10382;49.140;9.234;2023-04-16T11:16:01;54.07;;;26.00;;
20445;SDS011;10382;49.140;9.234;2023-04-16T11:18:28;39.50;;;19.80;;
20445;SDS011;10382;49.140;9.234;2023-04-16T11:20:56;63.97;;;39.97;;
20445;SDS011;10382;49.140;9.234;2023-04-16T11:23:23;98.13;;;65.73;;
20445;SDS011;10382;49.140;9.234;2023-04-16T11:25:50;49.47;;;17.33;;
20445;SDS011;10382;49.140;9.234;2023-04-16T11:28:30;42.13;;;14.03;;
20445;SDS011;10382;49.140;9.234;2023-04-16T11:30:58;48.77;;;14.70;;
20445;SDS011;10382;49.140;9.234;2023-04-16T11:33:26;71.40;;;29.93;;
20445;SDS011;10382;49.140;9.234;2023-04-16T11:35:56;69.43;;;49.70;;
20445;SDS011;10382;49.140;9.234;2023-04-16T11:38:31;27.97;;;11.10;;
20445;SDS011;10382;49.140;9.234;2023-04-16T11:40:59;31.83;;;10.07;;
20445;SDS011;10382;49.140;9.234;2023-04-16T11:43:26;31.77;;;10.30;;
20445;SDS011;10382;49.140;9.234;2023-04-16T11:45:55;107.93;;;38.40;;
20445;SDS011;10382;49.140;9.234;2023-04-16T11:48:22;46.27;;;14.00;;
20445;SDS011;10382;49.140;9.234;2023-04-16T11:50:55;58.80;;;30.60;;
20445;SDS011;10382;49.140;9.234;2023-04-16T11:53:22;39.47;;;10.67;;
20445;SDS011;10382;49.140;9.234;2023-04-16T11:55:49;33.13;;;8.97;;
20445;SDS011;10382;49.140;9.234;2023-04-16T11:58:16;29.83;;;9.17;;
20445;SDS011;10382;49.140;9.234;2023-04-16T12:00:43;16.03;;;7.17;;
20445;SDS011;10382;49.140;9.234;2023-04-16T12:03:10;16.93;;;6.83;;
20445;SDS011;10382;49.140;9.234;2023-04-16T12:05:37;18.00;;;8.70;;
20445;SDS011;10382;49.140;9.234;2023-04-16T12:08:08;22.83;;;9.37;;
20445;SDS011;10382;49.140;9.234;2023-04-16T12:10:36;16.33;;;6.80;;
20445;SDS011;10382;49.140;9.234;2023-04-16T12:13:17;10.37;;;5.43;;
20445;SDS011;10382;49.140;9.234;2023-04-16T12:15:45;17.77;;;7.53;;
20445;SDS011;10382;49.140;9.234;2023-04-16T12:18:13;16.57;;;7.00;;
20445;SDS011;10382;49.140;9.234;2023-04-16T12:20:40;24.50;;;10.03;;
20445;SDS011;10382;49.140;9.234;2023-04-16T12:23:09;15.80;;;7.53;;
20445;SDS011;10382;49.140;9.234;2023-04-16T12:25:47;14.70;;;7.00;;
20445;SDS011;10382;49.140;9.234;2023-04-16T12:28:25;12.00;;;6.30;;
20445;SDS011;10382;49.140;9.234;2023-04-16T12:30:53;18.03;;;7.90;;
20445;SDS011;10382;49.140;9.234;2023-04-16T12:33:20;16.50;;;7.47;;
20445;SDS011;10382;49.140;9.234;2023-04-16T12:35:47;18.10;;;9.07;;
20445;SDS011;10382;49.140;9.234;2023-04-16T12:38:16;14.07;;;6.80;;
20445;SDS011;10382;49.140;9.234;2023-04-16T12:40:43;24.73;;;10.50;;
20445;SDS011;10382;49.140;9.234;2023-04-16T12:43:10;23.53;;;10.00;;
20445;SDS011;10382;49.140;9.234;2023-04-16T12:45:37;18.30;;;8.80;;
20445;SDS011;10382;49.140;9.234;2023-04-16T12:48:05;14.50;;;7.07;;
20445;SDS011;10382;49.140;9.234;2023-04-16T12:50:33;18.57;;;8.83;;
20445;SDS011;10382;49.140;9.234;2023-04-16T12:53:00;26.70;;;11.53;;
20445;SDS011;10382;49.140;9.234;2023-04-16T12:55:28;21.40;;;9.43;;
20445;SDS011;10382;49.140;9.234;2023-04-16T12:57:55;15.77;;;7.77;;
20445;SDS011;10382;49.140;9.234;2023-04-16T13:00:22;15.77;;;7.87;;
20445;SDS011;10382;49.140;9.234;2023-04-16T13:02:49;17.17;;;8.43;;
20445;SDS011;10382;49.140;9.234;2023-04-16T13:05:16;20.57;;;9.60;;
20445;SDS011;10382;49.140;9.234;2023-04-16T13:07:43;17.70;;;8.80;;
20445;SDS011;10382;49.140;9.234;2023-04-16T13:10:10;21.50;;;9.47;;
20445;SDS011;10382;49.140;9.234;2023-04-16T13:12:39;19.20;;;10.17;;
20445;SDS011;10382;49.140;9.234;2023-04-16T13:15:07;18.97;;;9.23;;
20445;SDS011;10382;49.140;9.234;2023-04-16T13:17:35;16.37;;;8.80;;
20445;SDS011;10382;49.140;9.234;2023-04-16T13:20:01;18.17;;;9.00;;
20445;SDS011;10382;49.140;9.234;2023-04-16T13:22:29;28.93;;;10.17;;
20445;SDS011;10382;49.140;9.234;2023-04-16T13:24:56;15.10;;;8.13;;
20445;SDS011;10382;49.140;9.234;2023-04-16T13:27:23;14.40;;;7.63;;
20445;SDS011;10382;49.140;9.234;2023-04-16T13:29:51;21.30;;;10.60;;
20445;SDS011;10382;49.140;9.234;2023-04-16T13:32:18;19.87;;;9.90;;
20445;SDS011;10382;49.140;9.234;2023-04-16T13:34:45;23.13;;;9.60;;
20445;SDS011;10382;49.140;9.234;2023-04-16T13:37:12;15.80;;;8.90;;
20445;SDS011;10382;49.140;9.234;2023-04-16T13:39:39;29.17;;;13.07;;
20445;SDS011;10382;49.140;9.234;2023-04-16T13:42:09;18.97;;;10.10;;
20445;SDS011;10382;49.140;9.234;2023-04-16T13:44:36;23.47;;;11.70;;
20445;SDS011;10382;49.140;9.234;2023-04-16T13:47:04;24.33;;;12.07;;
20445;SDS011;10382;49.140;9.234;2023-04-16T13:49:31;21.50;;;11.20;;
20445;SDS011;10382;49.140;9.234;2023-04-16T13:51:59;18.43;;;9.97;;
20445;SDS011;10382;49.140;9.234;2023-04-16T13:54:26;22.20;;;11.57;;
20445;SDS011;10382;49.140;9.234;2023-04-16T13:56:56;21.73;;;10.90;;
20445;SDS011;10382;49.140;9.234;2023-04-16T13:59:23;18.33;;;10.43;;
20445;SDS011;10382;49.140;9.234;2023-04-16T14:01:50;30.83;;;11.50;;
20445;SDS011;10382;49.140;9.234;2023-04-16T14:04:18;32.90;;;12.97;;
20445;SDS011;10382;49.140;9.234;2023-04-16T14:06:46;26.93;;;13.23;;
20445;SDS011;10382;49.140;9.234;2023-04-16T14:09:14;27.47;;;13.00;;
20445;SDS011;10382;49.140;9.234;2023-04-16T14:11:41;24.70;;;12.73;;
20445;SDS011;10382;49.140;9.234;2023-04-16T14:14:08;31.30;;;13.63;;
20445;SDS011;10382;49.140;9.234;2023-04-16T14:16:35;21.20;;;11.70;;
20445;SDS011;10382;49.140;9.234;2023-04-16T14:19:02;25.00;;;12.93;;
20445;SDS011;10382;49.140;9.234;2023-04-16T14:21:30;29.67;;;13.80;;
20445;SDS011;10382;49.140;9.234;2023-04-16T14:23:57;25.57;;;12.70;;
20445;SDS011;10382;49.140;9.234;2023-04-16T14:26:24;20.57;;;11.40;;
20445;SDS011;10382;49.140;9.234;2023-04-16T14:28:51;29.77;;;14.17;;
20445;SDS011;10382;49.140;9.234;2023-04-16T14:31:18;21.37;;;11.70;;